Virginia — WCW4062 — position and weather

sailwx.info

Track history (hours):
 
Tides and Currents Weather Stations Pressure Air Temp Water Temp Dewpoint Dewpoint Depression Visibility Wind Speed Wind Dir Waves Ship Positions

Virginia

Owner: WEEKS MARINE, INC., CRANFORD, NJ. More information available from US FCC via Universal Licensing System and Coast Guard Vessel Documentation Center.

Last reported at 2016-May-03 15:33 UTC. Time now 2016-May-03 16:23 UTC.
Position N 39°57' W 075°08'.

MMSI: 366939110.

Date/timePositionNaut miles runAvg speedWind from/ knotsBaromVisibWave heightAir tempDewpointWater temp
2016-May-03 15:33N 39°57' W 075°08'0 0.0
2016-May-03 14:33N 39°57' W 075°08'0 0.0
2016-May-03 13:33N 39°57' W 075°08'0 0.0
2016-May-03 12:33N 39°57' W 075°08'0 0.0
2016-May-03 11:33N 39°57' W 075°08'0 0.0
2016-May-03 10:33N 39°57' W 075°08'0 0.0
2016-May-03 09:33N 39°57' W 075°08'0 0.0
2016-May-03 08:33N 39°57' W 075°08'0 0.0
2016-May-03 07:33N 39°57' W 075°08'0 0.0
2016-May-03 06:33N 39°57' W 075°08'0 0.0
2016-May-03 05:33N 39°57' W 075°08'0 0.0
2016-May-03 04:34N 39°57' W 075°08'0 0.0
2016-May-03 03:33N 39°57' W 075°08'0 0.0
2016-May-03 02:33N 39°57' W 075°08'0 0.0
2016-May-03 01:33N 39°57' W 075°08'0 0.0
2016-May-03 00:33N 39°57' W 075°08'0 0.0
2016-May-02 23:33N 39°57' W 075°08'0 0.0
2016-May-02 22:33N 39°57' W 075°08'0 0.0
2016-May-02 21:33N 39°57' W 075°08'0 0.0
2016-May-02 20:33N 39°57' W 075°08'0 0.0
2016-May-02 19:33N 39°57' W 075°08'0 0.0
2016-May-02 18:33N 39°57' W 075°08'2 1.7
2016-May-02 17:33N 39°56' W 075°08'1 1.5
2016-May-02 16:33N 39°57' W 075°08'0 0.0
2016-May-02 04:33N 39°57' W 075°08'0 0.0
2016-May-02 03:33N 39°57' W 075°08'0 0.0
2016-May-02 02:33N 39°57' W 075°08'0 0.0
2016-May-02 01:34N 39°57' W 075°08'0 0.0
2016-May-02 00:33N 39°57' W 075°08'4 3.5
2016-May-01 23:34N 39°54' W 075°08'1110.7
2016-May-01 22:33N 39°50' W 075°21'1111.4
2016-May-01 21:34N 39°42' W 075°31'9 9.4
2016-May-01 20:33N 39°33' W 075°36'1010.4
2016-May-01 19:33N 39°32' W 075°50'1110.6
2016-May-01 18:33N 39°26' W 076°01'1010.2
2016-May-01 17:33N 39°20' W 076°12'20 9.9
2016-May-01 15:33N 39°02' W 076°22'129 9.2
2016-May-01 01:29N 36°54' W 075°58'139 7.0
2016-Apr-30 05:28N 34°36' W 076°20'11 8.8
2016-Apr-30 04:14N 34°30' W 076°31'6 9.1
2016-Apr-30 03:33N 34°31' W 076°38'9 9.2
2016-Apr-30 02:32N 34°33' W 076°50'237 8.4
2016-Apr-28 22:29N 32°09' W 080°35'10 1.9
2016-Apr-28 17:17N 32°16' W 080°44'0 0.0
2016-Apr-28 14:03N 32°16' W 080°44'0 0.0
2016-Apr-28 13:31N 32°16' W 080°44'0 0.0
2016-Apr-28 12:04N 32°16' W 080°44'2 0.3
2016-Apr-28 04:15N 32°14' W 080°45'4 5.3
2016-Apr-28 03:28N 32°10' W 080°48'5 5.1
2016-Apr-28 02:33N 32°08' W 080°52'4 3.8
2016-Apr-28 01:33N 32°05' W 080°55'3 3.0
2016-Apr-28 00:33N 32°05' W 080°59'5 4.5
2016-Apr-27 23:33N 32°05' W 081°04'1 1.3
2016-Apr-27 22:33N 32°05' W 081°06'0 0.0
2016-Apr-27 21:33N 32°05' W 081°06'0 0.0
2016-Apr-27 20:33N 32°05' W 081°06'0 0.0
2016-Apr-27 19:33N 32°05' W 081°06'0 0.1
2016-Apr-27 18:33N 32°05' W 081°06'0 0.0
2016-Apr-27 17:33N 32°05' W 081°06'0 0.0
2016-Apr-27 16:33N 32°05' W 081°06'0 0.0
2016-Apr-27 15:33N 32°05' W 081°06'0 0.0
2016-Apr-27 14:33N 32°05' W 081°06'0 0.0
2016-Apr-27 13:33N 32°05' W 081°06'0 0.0
2016-Apr-27 12:33N 32°05' W 081°06'0 0.0
2016-Apr-27 11:33N 32°05' W 081°06'0 0.0
2016-Apr-27 10:33N 32°05' W 081°06'2 2.2
2016-Apr-27 09:33N 32°05' W 081°03'3 2.7
2016-Apr-27 08:33N 32°06' W 081°00'3 2.7
2016-Apr-27 07:33N 32°04' W 080°58'3 3.0
2016-Apr-27 06:33N 32°06' W 080°54'4 4.2
2016-Apr-27 05:33N 32°09' W 080°51'4 4.3
2016-Apr-27 04:33N 32°11' W 080°47'4 3.7
2016-Apr-27 03:32N 32°15' W 080°45'2 0.2
2016-Apr-26 18:25N 32°16' W 080°44'0 0.0
2016-Apr-26 14:24N 32°16' W 080°44'0 0.0
2016-Apr-26 11:11N 32°16' W 080°44'0 0.0
2016-Apr-26 10:29N 32°16' W 080°44'0 0.0
2016-Apr-26 09:33N 32°16' W 080°44'0 0.0
2016-Apr-26 08:33N 32°16' W 080°44'0 0.0
2016-Apr-26 06:27N 32°16' W 080°44'0 0.0
2016-Apr-26 05:32N 32°16' W 080°44'0 0.0
2016-Apr-26 04:33N 32°16' W 080°44'0 0.0
2016-Apr-26 03:33N 32°16' W 080°44'11 1.2
2016-Apr-25 18:33N 32°09' W 080°35'3 3.3
2016-Apr-25 17:32N 32°09' W 080°31'  
Track history (hours):
 
Tides and Currents Weather Stations Pressure Air Temp Water Temp Dewpoint Dewpoint Depression Visibility Wind Speed Wind Dir Waves Ship Positions

Virginia

Owner: WEEKS MARINE, INC., CRANFORD, NJ. More information available from US FCC via Universal Licensing System and Coast Guard Vessel Documentation Center.

Last reported at 2016-May-03 15:33 UTC. Time now 2016-May-03 16:23 UTC.
Position N 39°57' W 075°08'.

MMSI: 366939110.

Date/timePositionNaut miles runAvg speedWind from/ knotsBaromVisibWave heightAir tempDewpointWater temp
2016-May-03 15:33N 39°57' W 075°08'0 0.0
2016-May-03 14:33N 39°57' W 075°08'0 0.0
2016-May-03 13:33N 39°57' W 075°08'0 0.0
2016-May-03 12:33N 39°57' W 075°08'0 0.0
2016-May-03 11:33N 39°57' W 075°08'0 0.0
2016-May-03 10:33N 39°57' W 075°08'0 0.0
2016-May-03 09:33N 39°57' W 075°08'0 0.0
2016-May-03 08:33N 39°57' W 075°08'0 0.0
2016-May-03 07:33N 39°57' W 075°08'0 0.0
2016-May-03 06:33N 39°57' W 075°08'0 0.0
2016-May-03 05:33N 39°57' W 075°08'0 0.0
2016-May-03 04:34N 39°57' W 075°08'0 0.0
2016-May-03 03:33N 39°57' W 075°08'0 0.0
2016-May-03 02:33N 39°57' W 075°08'0 0.0
2016-May-03 01:33N 39°57' W 075°08'0 0.0
2016-May-03 00:33N 39°57' W 075°08'0 0.0
2016-May-02 23:33N 39°57' W 075°08'0 0.0
2016-May-02 22:33N 39°57' W 075°08'0 0.0
2016-May-02 21:33N 39°57' W 075°08'0 0.0
2016-May-02 20:33N 39°57' W 075°08'0 0.0
2016-May-02 19:33N 39°57' W 075°08'0 0.0
2016-May-02 18:33N 39°57' W 075°08'2 1.7
2016-May-02 17:33N 39°56' W 075°08'1 1.5
2016-May-02 16:33N 39°57' W 075°08'0 0.0
2016-May-02 04:33N 39°57' W 075°08'0 0.0
2016-May-02 03:33N 39°57' W 075°08'0 0.0
2016-May-02 02:33N 39°57' W 075°08'0 0.0
2016-May-02 01:34N 39°57' W 075°08'0 0.0
2016-May-02 00:33N 39°57' W 075°08'4 3.5
2016-May-01 23:34N 39°54' W 075°08'1110.7
2016-May-01 22:33N 39°50' W 075°21'1111.4
2016-May-01 21:34N 39°42' W 075°31'9 9.4
2016-May-01 20:33N 39°33' W 075°36'1010.4
2016-May-01 19:33N 39°32' W 075°50'1110.6
2016-May-01 18:33N 39°26' W 076°01'1010.2
2016-May-01 17:33N 39°20' W 076°12'20 9.9
2016-May-01 15:33N 39°02' W 076°22'129 9.2
2016-May-01 01:29N 36°54' W 075°58'139 7.0
2016-Apr-30 05:28N 34°36' W 076°20'11 8.8
2016-Apr-30 04:14N 34°30' W 076°31'6 9.1
2016-Apr-30 03:33N 34°31' W 076°38'9 9.2
2016-Apr-30 02:32N 34°33' W 076°50'237 8.4
2016-Apr-28 22:29N 32°09' W 080°35'10 1.9
2016-Apr-28 17:17N 32°16' W 080°44'0 0.0
2016-Apr-28 14:03N 32°16' W 080°44'0 0.0
2016-Apr-28 13:31N 32°16' W 080°44'0 0.0
2016-Apr-28 12:04N 32°16' W 080°44'2 0.3
2016-Apr-28 04:15N 32°14' W 080°45'4 5.3
2016-Apr-28 03:28N 32°10' W 080°48'5 5.1
2016-Apr-28 02:33N 32°08' W 080°52'4 3.8
2016-Apr-28 01:33N 32°05' W 080°55'3 3.0
2016-Apr-28 00:33N 32°05' W 080°59'5 4.5
2016-Apr-27 23:33N 32°05' W 081°04'1 1.3
2016-Apr-27 22:33N 32°05' W 081°06'0 0.0
2016-Apr-27 21:33N 32°05' W 081°06'0 0.0
2016-Apr-27 20:33N 32°05' W 081°06'0 0.0
2016-Apr-27 19:33N 32°05' W 081°06'0 0.1
2016-Apr-27 18:33N 32°05' W 081°06'0 0.0
2016-Apr-27 17:33N 32°05' W 081°06'0 0.0
2016-Apr-27 16:33N 32°05' W 081°06'0 0.0
2016-Apr-27 15:33N 32°05' W 081°06'0 0.0
2016-Apr-27 14:33N 32°05' W 081°06'0 0.0
2016-Apr-27 13:33N 32°05' W 081°06'0 0.0
2016-Apr-27 12:33N 32°05' W 081°06'0 0.0
2016-Apr-27 11:33N 32°05' W 081°06'0 0.0
2016-Apr-27 10:33N 32°05' W 081°06'2 2.2
2016-Apr-27 09:33N 32°05' W 081°03'3 2.7
2016-Apr-27 08:33N 32°06' W 081°00'3 2.7
2016-Apr-27 07:33N 32°04' W 080°58'3 3.0
2016-Apr-27 06:33N 32°06' W 080°54'4 4.2
2016-Apr-27 05:33N 32°09' W 080°51'4 4.3
2016-Apr-27 04:33N 32°11' W 080°47'4 3.7
2016-Apr-27 03:32N 32°15' W 080°45'2 0.2
2016-Apr-26 18:25N 32°16' W 080°44'0 0.0
2016-Apr-26 14:24N 32°16' W 080°44'0 0.0
2016-Apr-26 11:11N 32°16' W 080°44'0 0.0
2016-Apr-26 10:29N 32°16' W 080°44'0 0.0
2016-Apr-26 09:33N 32°16' W 080°44'0 0.0
2016-Apr-26 08:33N 32°16' W 080°44'0 0.0
2016-Apr-26 06:27N 32°16' W 080°44'0 0.0
2016-Apr-26 05:32N 32°16' W 080°44'0 0.0
2016-Apr-26 04:33N 32°16' W 080°44'0 0.0
2016-Apr-26 03:33N 32°16' W 080°44'11 1.2
2016-Apr-25 18:33N 32°09' W 080°35'3 3.3
2016-Apr-25 17:32N 32°09' W 080°31'  

Dump ship's entire track history